createdAt,value
2019-03-23T00:03:00.918Z,77.51
2019-03-23T00:07:55.655Z,77.94
2019-03-23T00:12:50.271Z,77.81
2019-03-23T00:17:44.904Z,77.90
2019-03-23T00:22:39.504Z,78.51
2019-03-23T00:27:34.120Z,78.48
2019-03-23T00:32:28.810Z,78.11
2019-03-23T00:37:23.435Z,78.46
2019-03-23T00:42:18.031Z,79.10
2019-03-23T00:47:12.693Z,79.72
2019-03-23T00:52:07.369Z,79.69
2019-03-23T00:57:02.086Z,80.21
2019-03-23T01:01:56.734Z,79.57
2019-03-23T01:06:52.401Z,78.93
2019-03-23T01:11:47.448Z,78.78
2019-03-23T01:16:42.113Z,78.65
2019-03-23T01:21:36.675Z,79.42
2019-03-23T01:26:31.280Z,79.80
2019-03-23T01:31:25.871Z,80.98
2019-03-23T01:36:20.497Z,82.15
2019-03-23T01:41:15.113Z,83.89
2019-03-23T01:46:09.702Z,84.36
2019-03-23T01:51:04.424Z,84.64
2019-03-23T01:55:59.051Z,84.54
2019-03-23T02:00:53.748Z,83.33
2019-03-23T02:05:48.349Z,83.16
2019-03-23T02:10:42.944Z,83.16
2019-03-23T02:15:37.550Z,80.96
2019-03-23T02:20:32.160Z,82.42
2019-03-23T02:25:26.779Z,82.54
2019-03-23T02:30:21.373Z,82.47
2019-03-23T02:35:15.967Z,81.16
2019-03-23T02:40:11.794Z,82.26
2019-03-23T02:45:09.878Z,82.72
2019-03-23T02:50:07.244Z,83.19
2019-03-23T02:55:01.848Z,83.70
2019-03-23T02:59:56.514Z,83.91
2019-03-23T03:04:51.137Z,84.24
2019-03-23T03:09:45.743Z,84.59
2019-03-23T03:14:40.336Z,85.71
2019-03-23T03:19:34.928Z,86.11
2019-03-23T03:24:29.535Z,86.77
2019-03-23T03:29:24.117Z,86.80
2019-03-23T03:34:18.710Z,87.00
2019-03-23T03:39:13.288Z,86.35
2019-03-23T03:44:07.878Z,86.41
2019-03-23T03:49:12.182Z,85.82
2019-03-23T03:53:58.801Z,85.95
2019-03-23T03:58:53.417Z,85.43
2019-03-23T04:03:48.026Z,85.42
2019-03-23T04:08:42.629Z,85.78
2019-03-23T04:13:37.707Z,85.60
2019-03-23T04:18:32.282Z,84.94
2019-03-23T04:23:26.882Z,84.55
2019-03-23T04:28:21.498Z,85.40
2019-03-23T04:33:16.083Z,85.79
2019-03-23T04:38:21.975Z,85.73
2019-03-23T04:43:07.083Z,87.33
2019-03-23T04:48:01.695Z,89.20
2019-03-23T04:52:56.296Z,88.88
2019-03-23T04:57:50.888Z,89.11
2019-03-23T05:02:45.557Z,89.48
2019-03-23T05:07:40.152Z,89.45
2019-03-23T05:12:34.755Z,88.76
2019-03-23T05:17:29.351Z,88.85
2019-03-23T05:22:23.971Z,88.24
2019-03-23T05:27:18.579Z,87.86
2019-03-23T05:32:13.264Z,87.26
2019-03-23T05:37:07.852Z,87.37
2019-03-23T05:42:02.487Z,87.50
2019-03-23T05:46:57.076Z,86.55
2019-03-23T05:51:51.678Z,85.68
2019-03-23T05:56:46.294Z,84.05
2019-03-23T06:01:40.906Z,82.13
2019-03-23T06:06:35.492Z,78.54
2019-03-23T06:11:30.094Z,76.53
2019-03-23T06:16:24.696Z,74.69
2019-03-23T06:21:19.287Z,71.03
2019-03-23T06:26:14.003Z,68.06
2019-03-23T06:31:08.598Z,67.93
2019-03-23T06:36:03.192Z,67.13
2019-03-23T06:40:57.797Z,65.94
2019-03-23T06:45:52.396Z,65.59
2019-03-23T06:50:47.004Z,65.64
2019-03-23T06:55:41.604Z,66.63
2019-03-23T07:00:36.214Z,68.07
2019-03-23T07:05:30.890Z,68.22
2019-03-23T07:10:25.476Z,67.98
2019-03-23T07:15:20.671Z,66.74
2019-03-23T07:20:16.781Z,68.56
2019-03-23T07:25:12.767Z,70.55
2019-03-23T07:30:17.325Z,71.45
2019-03-23T07:35:12.447Z,71.75
2019-03-23T07:40:10.424Z,70.69
2019-03-23T07:45:09.041Z,71.26
2019-03-23T07:50:05.832Z,70.56
2019-03-23T07:55:10.379Z,69.71
2019-03-23T08:00:09.513Z,69.32
2019-03-23T08:05:06.283Z,68.54
2019-03-23T08:10:00.880Z,67.74
2019-03-23T08:14:55.494Z,67.42
2019-03-23T08:19:50.075Z,67.02
2019-03-23T08:24:44.662Z,66.30
2019-03-23T08:29:39.260Z,65.34
2019-03-23T08:34:33.879Z,65.44
2019-03-23T08:39:28.501Z,65.31
2019-03-23T08:44:23.115Z,64.49
2019-03-23T08:49:17.713Z,63.80
2019-03-23T08:54:12.316Z,63.30
2019-03-23T08:59:06.914Z,61.54
2019-03-23T09:04:01.529Z,60.75
2019-03-23T09:08:56.147Z,60.62
2019-03-23T09:13:50.755Z,59.52
2019-03-23T09:18:45.349Z,59.33
2019-03-23T09:23:39.960Z,58.30
2019-03-23T09:28:34.561Z,55.44
2019-03-23T09:33:29.184Z,54.15
2019-03-23T09:38:23.784Z,55.11
2019-03-23T09:43:18.387Z,53.77
2019-03-23T09:48:13.004Z,53.34
2019-03-23T09:53:07.621Z,51.94
2019-03-23T09:58:02.227Z,52.00
2019-03-23T10:02:56.836Z,51.44
2019-03-23T10:07:51.439Z,50.96
2019-03-23T10:12:46.046Z,48.61
2019-03-23T10:17:40.668Z,51.27
2019-03-23T10:22:35.331Z,50.33
2019-03-23T10:27:29.946Z,49.86
2019-03-23T10:32:24.544Z,49.49
2019-03-23T10:37:19.164Z,48.71
2019-03-23T10:42:16.130Z,47.64
2019-03-23T10:47:10.101Z,47.21
2019-03-23T10:52:04.711Z,46.39
2019-03-23T10:56:59.324Z,46.41
2019-03-23T11:01:54.006Z,46.08
2019-03-23T11:06:48.604Z,44.75
2019-03-23T11:11:43.230Z,44.95
2019-03-23T11:16:37.832Z,44.88
2019-03-23T11:21:32.534Z,44.90
2019-03-23T11:26:28.117Z,45.42
2019-03-23T11:31:22.915Z,45.04
2019-03-23T11:36:17.527Z,45.07
2019-03-23T11:41:12.149Z,44.72
2019-03-23T11:46:06.746Z,44.57
2019-03-23T11:51:01.365Z,44.24
2019-03-23T11:55:55.951Z,44.05
2019-03-23T12:00:50.566Z,44.08
2019-03-23T12:05:45.159Z,43.62
2019-03-23T12:10:39.764Z,42.14
2019-03-23T12:15:34.353Z,41.74
2019-03-23T12:20:28.949Z,41.07
2019-03-23T12:25:23.544Z,40.79
2019-03-23T12:30:19.448Z,40.59
2019-03-23T12:35:14.301Z,40.87
2019-03-23T12:40:10.616Z,41.04
2019-03-23T12:45:07.824Z,40.51
2019-03-23T12:50:02.438Z,39.84
2019-03-23T12:54:57.034Z,40.78
2019-03-23T12:59:51.667Z,39.95
2019-03-23T13:04:46.277Z,39.34
2019-03-23T13:09:40.863Z,39.42
2019-03-23T13:14:35.467Z,38.99
2019-03-23T13:19:30.085Z,38.67
2019-03-23T13:24:24.779Z,38.47
2019-03-23T13:29:19.366Z,38.03
2019-03-23T13:34:14.024Z,37.90
2019-03-23T13:39:08.732Z,37.82
2019-03-23T13:44:03.343Z,37.06
2019-03-23T13:48:57.954Z,37.30
2019-03-23T13:53:52.553Z,37.43
2019-03-23T13:58:47.238Z,37.87
2019-03-23T14:03:41.859Z,37.49
2019-03-23T14:08:36.472Z,37.31
2019-03-23T14:13:31.514Z,37.21
2019-03-23T14:18:26.136Z,37.62
2019-03-23T14:23:20.804Z,37.61
2019-03-23T14:28:15.428Z,37.16
2019-03-23T14:33:10.015Z,36.84
2019-03-23T14:38:04.734Z,36.48
2019-03-23T14:42:59.326Z,36.57
2019-03-23T14:47:53.933Z,36.14
2019-03-23T14:52:48.514Z,35.39
2019-03-23T14:57:43.159Z,35.46
2019-03-23T15:02:37.746Z,34.60
2019-03-23T15:07:32.361Z,34.40
2019-03-23T15:12:26.956Z,34.48
2019-03-23T15:17:21.586Z,34.72
2019-03-23T15:22:16.161Z,34.75
2019-03-23T15:27:10.777Z,34.60
2019-03-23T15:32:05.369Z,35.46
2019-03-23T15:36:59.998Z,35.76
2019-03-23T15:41:54.594Z,35.79
2019-03-23T15:46:49.216Z,35.44
2019-03-23T15:51:43.789Z,35.75
2019-03-23T15:56:38.399Z,34.25
2019-03-23T16:01:32.987Z,32.97
2019-03-23T16:06:27.606Z,33.04
2019-03-23T16:11:22.194Z,33.28
2019-03-23T16:16:16.799Z,33.91
2019-03-23T16:21:11.392Z,34.73
2019-03-23T16:26:06.134Z,35.13
2019-03-23T16:31:00.757Z,35.36
2019-03-23T16:35:55.382Z,35.44
2019-03-23T16:40:49.969Z,35.33
2019-03-23T16:45:44.591Z,35.47
2019-03-23T16:50:39.271Z,36.74
2019-03-23T16:55:33.890Z,37.39
2019-03-23T17:00:39.398Z,37.67
2019-03-23T17:05:36.300Z,37.88
2019-03-23T17:10:30.510Z,38.64
2019-03-23T17:15:25.112Z,38.74
2019-03-23T17:20:19.735Z,38.89
2019-03-23T17:25:14.401Z,40.34
2019-03-23T17:30:12.834Z,41.03
2019-03-23T17:35:09.620Z,42.06
2019-03-23T17:40:07.402Z,42.79
2019-03-23T17:45:02.014Z,43.79
2019-03-23T17:49:57.331Z,44.14
2019-03-23T17:54:52.287Z,44.74
2019-03-23T17:59:46.892Z,45.62
2019-03-23T18:04:41.500Z,46.87
2019-03-23T18:09:36.113Z,47.39
2019-03-23T18:14:30.726Z,47.70
2019-03-23T18:19:25.327Z,47.61
2019-03-23T18:24:19.977Z,48.28
2019-03-23T18:29:14.584Z,48.87
2019-03-23T18:34:09.194Z,48.14
2019-03-23T18:39:05.166Z,49.08
2019-03-23T18:43:59.785Z,49.27
2019-03-23T18:48:54.382Z,50.15
2019-03-23T18:53:48.972Z,49.61
2019-03-23T18:58:43.592Z,50.35
2019-03-23T19:03:40.359Z,50.55
2019-03-23T19:08:34.524Z,50.97
2019-03-23T19:13:37.573Z,50.97
2019-03-23T19:18:25.468Z,51.45
2019-03-23T19:23:20.082Z,52.22
2019-03-23T19:28:14.696Z,54.00
2019-03-23T19:33:09.300Z,54.54
2019-03-23T19:38:14.866Z,54.80
2019-03-23T19:43:09.463Z,55.48
2019-03-23T19:48:04.381Z,56.29
2019-03-23T19:52:58.980Z,56.72
2019-03-23T19:57:54.748Z,57.17
2019-03-23T20:02:49.396Z,57.56
2019-03-23T20:07:44.018Z,56.85
2019-03-23T20:12:38.802Z,56.80
2019-03-23T20:17:33.394Z,57.25
2019-03-23T20:22:27.996Z,58.07
2019-03-23T20:27:22.587Z,59.37
2019-03-23T20:32:17.197Z,61.24
2019-03-23T20:37:11.765Z,63.15
2019-03-23T20:42:06.537Z,65.26
2019-03-23T20:47:01.209Z,65.75
2019-03-23T20:51:56.350Z,66.25
2019-03-23T20:56:50.932Z,66.47
2019-03-23T21:01:45.565Z,66.38
2019-03-23T21:06:40.205Z,66.74
2019-03-23T21:11:35.461Z,66.93
2019-03-23T21:16:30.124Z,66.75
2019-03-23T21:21:24.715Z,66.92
2019-03-23T21:26:19.330Z,67.32
2019-03-23T21:31:13.916Z,67.51
2019-03-23T21:36:08.516Z,67.71
2019-03-23T21:41:03.088Z,67.21
2019-03-23T21:45:57.744Z,66.44
2019-03-23T21:50:53.887Z,66.55
2019-03-23T21:55:48.503Z,67.06
2019-03-23T22:00:43.087Z,67.82
2019-03-23T22:05:37.754Z,67.82
2019-03-23T22:10:32.453Z,67.91
2019-03-23T22:15:28.737Z,66.43
2019-03-23T22:20:23.335Z,66.93
2019-03-23T22:25:17.937Z,66.93
2019-03-23T22:30:17.460Z,68.36
2019-03-23T22:35:12.182Z,68.89
2019-03-23T22:40:09.867Z,69.14
2019-03-23T22:45:10.016Z,69.47
2019-03-23T22:50:07.008Z,70.32
2019-03-23T22:55:01.605Z,70.69
2019-03-23T22:59:56.211Z,71.12
2019-03-23T23:04:50.805Z,71.43
2019-03-23T23:09:45.425Z,71.41
2019-03-23T23:14:40.036Z,71.79
2019-03-23T23:19:34.627Z,72.49
2019-03-23T23:24:29.218Z,71.70
2019-03-23T23:29:23.827Z,71.31
2019-03-23T23:34:18.423Z,71.31
2019-03-23T23:39:13.004Z,72.12
2019-03-23T23:44:07.595Z,72.31
2019-03-23T23:49:02.195Z,72.25
2019-03-23T23:53:56.798Z,72.60
2019-03-23T23:58:51.388Z,73.04
